Time;durP1;ratioP1;P1;durP2;ratioP2;P2;SDS_P1;SDS_P2;PMS_P1;PMS_P2;Temp;Humidity;BMP_temperature;BMP_pressure;BME280_temperature;BME280_humidity;BME280_pressure;Samples;Min_cycle;Max_cycle;Signal;HPM_P1;HPM_P2
2023/05/22 00:02:15;;;;;;;;;;;17.00;64.60;;;;;;5055617;27;82872;-41
2023/05/22 00:04:41;;;;;;;;;;;17.10;64.70;;;;;;5056738;27;81285;-39
2023/05/22 00:07:06;;;;;;;;;;;17.10;64.70;;;;;;5054698;27;82223;-41
2023/05/22 00:09:32;;;;;;;;;;;17.00;64.70;;;;;;5056530;27;82818;-40
2023/05/22 00:11:57;;;;;;;;;;;17.00;64.80;;;;;;5055437;27;82996;-39
2023/05/22 00:14:23;;;;;;;;;;;17.00;64.80;;;;;;5054039;27;82919;-41
2023/05/22 00:16:49;;;;;;;;;;;17.00;64.90;;;;;;5057132;27;82213;-40
2023/05/22 00:19:15;;;;;;;;;;;17.00;64.90;;;;;;5053624;27;83052;-39
2023/05/22 00:21:44;;;;;;;;;;;17.00;64.90;;;;;;5057259;27;83186;-41
2023/05/22 00:24:09;;;;;;;;;;;17.00;64.90;;;;;;5050141;27;82067;-40
2023/05/22 00:26:35;;;;;;;;;;;17.00;64.90;;;;;;5052583;27;81953;-40
2023/05/22 00:29:01;;;;;;;;;;;16.90;64.80;;;;;;5057804;27;81583;-40
2023/05/22 00:31:26;;;;;;;;;;;17.00;65.00;;;;;;5053897;27;82142;-40
2023/05/22 00:33:51;;;;;;;;;;;17.00;65.00;;;;;;5059482;27;82468;-41
2023/05/22 00:36:17;;;;;;;;;;;16.90;64.90;;;;;;5053646;27;83033;-41
2023/05/22 00:38:43;;;;;;;;;;;16.90;64.90;;;;;;5056079;27;84576;-41
2023/05/22 00:41:08;;;;;;;;;;;16.90;64.90;;;;;;5052178;27;83888;-40
2023/05/22 00:43:34;;;;;;;;;;;16.90;65.10;;;;;;5054653;27;82154;-40
2023/05/22 00:46:00;;;;;;;;;;;17.00;65.10;;;;;;5055469;27;83887;-41
2023/05/22 00:48:26;;;;;;;;;;;16.90;65.00;;;;;;5055335;27;83315;-40
2023/05/22 00:50:53;;;;;;;;;;;16.90;65.00;;;;;;5055209;27;81958;-41
2023/05/22 00:53:19;;;;;;;;;;;16.90;65.10;;;;;;5055502;27;82322;-40
2023/05/22 00:55:45;;;;;;;;;;;16.90;65.10;;;;;;5055078;27;83197;-40
2023/05/22 00:58:13;;;;;;;;;;;16.90;65.20;;;;;;5054745;27;82351;-41
2023/05/22 01:00:40;;;;;;;;;;;16.80;65.10;;;;;;5054566;27;83880;-40
2023/05/22 01:03:06;;;;;;;;;;;16.80;65.20;;;;;;5054622;27;82031;-41
2023/05/22 01:05:33;;;;;;;;;;;16.90;65.20;;;;;;5055805;27;82743;-41
2023/05/22 01:07:59;;;;;;;;;;;16.90;65.10;;;;;;5054258;27;83000;-40
2023/05/22 01:10:25;;;;;;;;;;;16.80;65.30;;;;;;5056079;27;82712;-41
2023/05/22 01:13:05;;;;;;;;;;;16.80;65.20;;;;;;5052101;27;82340;-41
2023/05/22 01:15:51;;;;;;;;;;;16.80;65.30;;;;;;5055684;27;83020;-40
2023/05/22 01:18:18;;;;;;;;;;;16.80;65.40;;;;;;5055273;27;81702;-41
2023/05/22 01:21:03;;;;;;;;;;;16.80;65.40;;;;;;5058826;27;84126;-40
2023/05/22 01:23:40;;;;;;;;;;;16.80;65.30;;;;;;5059947;27;82200;-40
2023/05/22 01:26:06;;;;;;;;;;;16.80;65.40;;;;;;5052289;27;82993;-41
2023/05/22 01:28:50;;;;;;;;;;;16.80;65.30;;;;;;5053162;27;84194;-40
2023/05/22 01:31:16;;;;;;;;;;;16.70;65.30;;;;;;5056956;27;82206;-40
2023/05/22 01:33:46;;;;;;;;;;;16.80;65.40;;;;;;5040527;27;84158;-41
2023/05/22 01:36:14;;;;;;;;;;;16.70;65.40;;;;;;5056301;27;83083;-40
2023/05/22 01:38:40;;;;;;;;;;;16.70;65.30;;;;;;5061632;27;82507;-41
2023/05/22 01:41:06;;;;;;;;;;;16.70;65.50;;;;;;5056761;27;82095;-41
2023/05/22 01:43:32;;;;;;;;;;;16.70;65.50;;;;;;5055725;27;81211;-41
2023/05/22 01:45:58;;;;;;;;;;;16.70;65.60;;;;;;5058473;27;82849;-41
2023/05/22 01:48:23;;;;;;;;;;;16.70;65.50;;;;;;5057018;27;82143;-40
2023/05/22 01:50:51;;;;;;;;;;;16.70;65.50;;;;;;5057656;27;83006;-40
2023/05/22 01:53:22;;;;;;;;;;;16.70;65.50;;;;;;5056782;27;83651;-40
2023/05/22 01:55:55;;;;;;;;;;;16.70;65.50;;;;;;5058668;27;83049;-40
2023/05/22 01:58:34;;;;;;;;;;;16.60;65.50;;;;;;5054784;27;82732;-40
2023/05/22 02:01:02;;;;;;;;;;;16.60;65.50;;;;;;5056615;27;82744;-40
2023/05/22 02:03:32;;;;;;;;;;;16.60;65.60;;;;;;5058251;27;82085;-40
2023/05/22 02:05:58;;;;;;;;;;;16.60;65.60;;;;;;5057409;27;82744;-40
2023/05/22 02:08:25;;;;;;;;;;;16.60;65.60;;;;;;5058326;27;82175;-40
2023/05/22 02:10:53;;;;;;;;;;;16.60;65.60;;;;;;5056687;27;82267;-41
2023/05/22 02:13:20;;;;;;;;;;;16.60;65.70;;;;;;5054421;27;82358;-40
2023/05/22 02:15:45;;;;;;;;;;;16.60;65.50;;;;;;5057143;27;83131;-40
2023/05/22 02:18:14;;;;;;;;;;;16.60;66.30;;;;;;5056661;27;82414;-41
2023/05/22 02:20:40;;;;;;;;;;;16.50;65.70;;;;;;5057891;27;82304;-41
2023/05/22 02:23:06;;;;;;;;;;;16.50;65.70;;;;;;5059256;27;82192;-40
2023/05/22 02:25:31;;;;;;;;;;;16.50;65.90;;;;;;5058227;27;82414;-40
2023/05/22 02:27:57;;;;;;;;;;;16.50;65.70;;;;;;5054130;27;82951;-41
2023/05/22 02:30:23;;;;;;;;;;;16.50;65.60;;;;;;5055172;27;82098;-41
2023/05/22 02:32:48;;;;;;;;;;;16.50;65.80;;;;;;5059445;27;81705;-41
2023/05/22 02:35:13;;;;;;;;;;;16.50;65.80;;;;;;5054857;27;82616;-40
2023/05/22 02:37:39;;;;;;;;;;;16.50;66.30;;;;;;5051222;27;82062;-41
2023/05/22 02:40:05;;;;;;;;;;;16.50;65.80;;;;;;5058236;27;83068;-41
2023/05/22 02:42:31;;;;;;;;;;;16.50;65.80;;;;;;5053606;27;83008;-40
2023/05/22 02:44:56;;;;;;;;;;;16.50;65.70;;;;;;5061104;27;82061;-41
2023/05/22 02:47:22;;;;;;;;;;;16.50;65.80;;;;;;5055800;27;82189;-41
2023/05/22 02:49:48;;;;;;;;;;;16.40;65.80;;;;;;5057386;27;82084;-41
2023/05/22 02:52:14;;;;;;;;;;;16.40;65.80;;;;;;5055566;27;82450;-41
2023/05/22 02:54:39;;;;;;;;;;;16.40;65.80;;;;;;5057086;27;82628;-41
2023/05/22 02:57:05;;;;;;;;;;;16.40;65.80;;;;;;5057337;27;81375;-40
2023/05/22 02:59:30;;;;;;;;;;;16.50;65.90;;;;;;5054079;27;81942;-41
2023/05/22 03:01:56;;;;;;;;;;;16.40;65.90;;;;;;5056381;27;83006;-41
2023/05/22 03:04:21;;;;;;;;;;;16.40;66.00;;;;;;5056663;27;83045;-40
2023/05/22 03:06:47;;;;;;;;;;;16.40;65.90;;;;;;5058346;27;83892;-40
2023/05/22 03:09:13;;;;;;;;;;;16.40;66.00;;;;;;5057432;27;82075;-41
2023/05/22 03:11:38;;;;;;;;;;;16.40;65.90;;;;;;5054273;27;82061;-41
2023/05/22 03:14:04;;;;;;;;;;;16.40;65.90;;;;;;5048566;27;83976;-40
2023/05/22 03:16:29;;;;;;;;;;;16.30;66.50;;;;;;5050795;27;82028;-40
2023/05/22 03:19:11;;;;;;;;;;;16.30;66.00;;;;;;5054878;27;82485;-40
2023/05/22 03:21:36;;;;;;;;;;;16.30;65.90;;;;;;5054558;27;83161;-41
2023/05/22 03:24:02;;;;;;;;;;;16.30;66.00;;;;;;5054673;27;81945;-40
2023/05/22 03:26:28;;;;;;;;;;;16.30;65.90;;;;;;5056792;27;82474;-41
2023/05/22 03:28:54;;;;;;;;;;;16.30;66.00;;;;;;5049181;27;83035;-41
2023/05/22 03:31:19;;;;;;;;;;;16.30;65.90;;;;;;5056948;27;83287;-41
2023/05/22 03:33:45;;;;;;;;;;;16.30;66.00;;;;;;5054359;27;83025;-41
2023/05/22 03:36:10;;;;;;;;;;;16.30;66.00;;;;;;5047066;27;82036;-40
2023/05/22 03:38:36;;;;;;;;;;;16.30;66.10;;;;;;5052609;27;82716;-41
2023/05/22 03:41:01;;;;;;;;;;;16.30;66.00;;;;;;5056908;27;84397;-41
2023/05/22 03:43:27;;;;;;;;;;;16.30;66.00;;;;;;5050813;27;82440;-41
2023/05/22 03:45:52;;;;;;;;;;;16.30;66.00;;;;;;5049701;27;82524;-40
2023/05/22 03:48:18;;;;;;;;;;;16.30;66.00;;;;;;5051769;27;82637;-40
2023/05/22 03:50:44;;;;;;;;;;;16.30;66.10;;;;;;5054700;27;82334;-40
2023/05/22 03:53:10;;;;;;;;;;;16.30;66.10;;;;;;5048827;27;85400;-41
2023/05/22 03:55:35;;;;;;;;;;;16.30;66.10;;;;;;5047452;27;82372;-41
2023/05/22 03:58:01;;;;;;;;;;;16.30;66.10;;;;;;5052440;27;82971;-41
2023/05/22 04:00:26;;;;;;;;;;;16.30;66.00;;;;;;5055909;27;84269;-41
2023/05/22 04:02:53;;;;;;;;;;;16.20;66.00;;;;;;5050357;27;82613;-40
2023/05/22 04:05:19;;;;;;;;;;;16.20;66.00;;;;;;5046590;27;83608;-40
2023/05/22 04:08:03;;;;;;;;;;;16.30;66.10;;;;;;5048991;27;84305;-41
2023/05/22 04:10:28;;;;;;;;;;;16.30;66.00;;;;;;5053258;27;81470;-40
2023/05/22 04:12:54;;;;;;;;;;;16.20;66.00;;;;;;5039424;27;84572;-40
2023/05/22 04:15:20;;;;;;;;;;;16.20;66.00;;;;;;5042459;27;82289;-40
2023/05/22 04:17:46;;;;;;;;;;;16.20;66.00;;;;;;5056165;27;83639;-41
2023/05/22 04:20:11;;;;;;;;;;;16.30;66.00;;;;;;5052878;27;82762;-40
2023/05/22 04:22:38;;;;;;;;;;;16.30;66.00;;;;;;5042524;27;83430;-41
2023/05/22 04:25:04;;;;;;;;;;;16.30;66.00;;;;;;5047698;27;81930;-41
2023/05/22 04:27:29;;;;;;;;;;;16.20;66.10;;;;;;5054274;27;84613;-40
2023/05/22 04:29:55;;;;;;;;;;;16.20;66.20;;;;;;5054273;27;81991;-40
2023/05/22 04:32:22;;;;;;;;;;;16.20;66.20;;;;;;5049775;27;82114;-40
2023/05/22 04:34:51;;;;;;;;;;;16.20;66.00;;;;;;5051870;27;81612;-40
2023/05/22 04:37:17;;;;;;;;;;;16.20;66.00;;;;;;5055890;27;83216;-41
2023/05/22 04:39:45;;;;;;;;;;;16.20;66.10;;;;;;5050841;27;84342;-41
2023/05/22 04:42:13;;;;;;;;;;;16.20;66.10;;;;;;5046120;27;83002;-40
2023/05/22 04:44:39;;;;;;;;;;;16.20;66.10;;;;;;5048994;27;83391;-40
2023/05/22 04:47:06;;;;;;;;;;;16.20;66.00;;;;;;5055565;27;82226;-41
2023/05/22 04:49:32;;;;;;;;;;;16.20;66.10;;;;;;5049448;27;82069;-40
2023/05/22 04:51:58;;;;;;;;;;;16.20;66.10;;;;;;5044143;27;83895;-40
2023/05/22 04:54:23;;;;;;;;;;;16.20;66.20;;;;;;5056224;27;82928;-41
2023/05/22 04:56:50;;;;;;;;;;;16.20;66.20;;;;;;5058784;27;83575;-41
2023/05/22 04:59:16;;;;;;;;;;;16.20;66.30;;;;;;5052663;27;83850;-41
2023/05/22 05:01:45;;;;;;;;;;;16.20;66.20;;;;;;5049786;27;82980;-40
2023/05/22 05:04:10;;;;;;;;;;;16.20;66.30;;;;;;5058236;27;83606;-41
2023/05/22 05:06:36;;;;;;;;;;;16.20;66.40;;;;;;5055383;27;83846;-40
2023/05/22 05:09:05;;;;;;;;;;;16.10;66.30;;;;;;5049202;27;82743;-42
2023/05/22 05:11:31;;;;;;;;;;;16.10;66.40;;;;;;5049330;27;82257;-41
2023/05/22 05:13:57;;;;;;;;;;;16.10;66.40;;;;;;5058729;27;84282;-41
2023/05/22 05:16:24;;;;;;;;;;;16.10;66.40;;;;;;5056178;27;82098;-39
2023/05/22 05:18:50;;;;;;;;;;;16.10;66.50;;;;;;5050312;27;83013;-41
2023/05/22 05:21:16;;;;;;;;;;;16.10;66.50;;;;;;5054607;27;82631;-40
2023/05/22 05:23:41;;;;;;;;;;;16.10;66.50;;;;;;5057518;27;82435;-41
2023/05/22 05:26:07;;;;;;;;;;;16.10;66.40;;;;;;5054287;27;83325;-39
2023/05/22 05:28:32;;;;;;;;;;;16.10;66.40;;;;;;5045243;27;82170;-40
2023/05/22 05:30:58;;;;;;;;;;;16.10;66.40;;;;;;5052713;27;82927;-40
2023/05/22 05:33:24;;;;;;;;;;;16.10;66.50;;;;;;5059822;27;82270;-41
2023/05/22 05:35:51;;;;;;;;;;;16.10;66.50;;;;;;5049159;27;82125;-40
2023/05/22 05:38:17;;;;;;;;;;;16.10;66.50;;;;;;5052834;27;82900;-40
2023/05/22 05:40:43;;;;;;;;;;;16.10;66.50;;;;;;5055998;27;82247;-42
2023/05/22 05:43:09;;;;;;;;;;;16.10;66.60;;;;;;5059411;27;82174;-40
2023/05/22 05:45:34;;;;;;;;;;;16.10;66.50;;;;;;5047297;27;84218;-41
2023/05/22 05:48:00;;;;;;;;;;;16.10;66.60;;;;;;5035319;28;81446;-40
2023/05/22 05:50:25;;;;;;;;;;;16.10;66.60;;;;;;5058443;27;81999;-41
2023/05/22 05:52:51;;;;;;;;;;;16.10;66.60;;;;;;5055184;27;83709;-41
2023/05/22 05:55:16;;;;;;;;;;;16.10;66.50;;;;;;5046725;27;84158;-41
2023/05/22 05:57:42;;;;;;;;;;;16.10;66.60;;;;;;5051077;27;84029;-40
2023/05/22 06:00:10;;;;;;;;;;;16.10;66.60;;;;;;5056914;27;82074;-41
2023/05/22 06:02:36;;;;;;;;;;;16.10;66.40;;;;;;5052398;27;83056;-40
2023/05/22 06:05:04;;;;;;;;;;;16.20;66.30;;;;;;5049502;27;84221;-41
2023/05/22 06:07:30;;;;;;;;;;;16.20;66.10;;;;;;5047502;27;82759;-41
2023/05/22 06:09:55;;;;;;;;;;;16.20;66.10;;;;;;5057215;27;82443;-40
2023/05/22 06:12:21;;;;;;;;;;;16.20;66.00;;;;;;5054024;27;82402;-41
2023/05/22 06:14:47;;;;;;;;;;;16.20;66.00;;;;;;5056527;27;82865;-40
2023/05/22 06:17:12;;;;;;;;;;;16.30;66.00;;;;;;5050583;27;82190;-42
2023/05/22 06:19:38;;;;;;;;;;;16.20;65.90;;;;;;5057105;27;83765;-41
2023/05/22 06:22:03;;;;;;;;;;;16.20;65.90;;;;;;5048533;27;83250;-41
2023/05/22 06:24:31;;;;;;;;;;;16.20;66.40;;;;;;5051518;27;82968;-40
2023/05/22 06:26:56;;;;;;;;;;;16.30;65.90;;;;;;5050293;27;82006;-40
2023/05/22 06:29:22;;;;;;;;;;;16.30;65.80;;;;;;5054109;27;82338;-41
2023/05/22 06:31:47;;;;;;;;;;;16.20;65.70;;;;;;5050095;27;82943;-41
2023/05/22 06:34:13;;;;;;;;;;;16.30;65.80;;;;;;5049701;27;82182;-39
2023/05/22 06:36:39;;;;;;;;;;;16.20;65.90;;;;;;5045953;27;82443;-41
2023/05/22 06:39:05;;;;;;;;;;;16.20;65.90;;;;;;5056667;27;84461;-41
2023/05/22 06:41:32;;;;;;;;;;;16.20;65.90;;;;;;5056942;27;82048;-40
2023/05/22 06:43:58;;;;;;;;;;;16.30;65.90;;;;;;5046929;27;83927;-41
2023/05/22 06:46:23;;;;;;;;;;;16.20;66.00;;;;;;5044627;27;82140;-41
2023/05/22 06:48:49;;;;;;;;;;;16.20;66.00;;;;;;5056207;27;82964;-40
2023/05/22 06:51:14;;;;;;;;;;;16.20;65.90;;;;;;5054556;27;82981;-40
2023/05/22 06:53:40;;;;;;;;;;;16.20;65.90;;;;;;5028211;27;83085;-40
2023/05/22 06:56:06;;;;;;;;;;;16.20;65.80;;;;;;5049775;27;82716;-40
2023/05/22 06:58:31;;;;;;;;;;;16.20;65.90;;;;;;5055206;27;83127;-41
2023/05/22 07:00:57;;;;;;;;;;;16.20;65.80;;;;;;5047157;27;82001;-41
2023/05/22 07:03:22;;;;;;;;;;;16.20;65.70;;;;;;5046035;27;82218;-41
2023/05/22 07:05:48;;;;;;;;;;;16.20;65.60;;;;;;5052651;27;82174;-40
2023/05/22 07:08:14;;;;;;;;;;;16.20;65.80;;;;;;5053075;27;83521;-41
2023/05/22 07:10:39;;;;;;;;;;;16.20;65.70;;;;;;5051914;27;83013;-41
2023/05/22 07:13:05;;;;;;;;;;;16.20;65.50;;;;;;5057494;27;82035;-41
2023/05/22 07:15:30;;;;;;;;;;;16.20;65.60;;;;;;5053274;27;82946;-41
2023/05/22 07:17:56;;;;;;;;;;;16.20;65.40;;;;;;5056416;27;83007;-41
2023/05/22 07:20:21;;;;;;;;;;;16.30;65.70;;;;;;5051531;27;82978;-41
2023/05/22 07:22:47;;;;;;;;;;;16.20;65.40;;;;;;5046517;27;82428;-40
2023/05/22 07:25:13;;;;;;;;;;;16.30;65.30;;;;;;5057594;27;82563;-40
2023/05/22 07:27:38;;;;;;;;;;;16.30;65.30;;;;;;5055328;27;82585;-40
2023/05/22 07:30:04;;;;;;;;;;;16.20;65.30;;;;;;5050922;27;83314;-41
2023/05/22 07:32:29;;;;;;;;;;;16.30;65.10;;;;;;5044540;27;82832;-40
2023/05/22 07:34:55;;;;;;;;;;;16.30;65.10;;;;;;5055206;27;83522;-41
2023/05/22 07:37:21;;;;;;;;;;;16.30;65.10;;;;;;5051753;27;84574;-41
2023/05/22 07:39:46;;;;;;;;;;;16.30;65.10;;;;;;5042536;27;82171;-39
2023/05/22 07:42:13;;;;;;;;;;;16.30;65.10;;;;;;5049997;27;82500;-40
2023/05/22 07:44:39;;;;;;;;;;;16.30;65.00;;;;;;5056667;27;84305;-40
2023/05/22 07:47:05;;;;;;;;;;;16.30;65.30;;;;;;5050443;27;83833;-41
2023/05/22 07:49:30;;;;;;;;;;;16.30;65.20;;;;;;5048455;27;82228;-39
2023/05/22 07:51:56;;;;;;;;;;;16.30;65.20;;;;;;5052868;27;82618;-40
2023/05/22 07:54:21;;;;;;;;;;;16.30;65.30;;;;;;5053282;27;82362;-39
2023/05/22 07:56:47;;;;;;;;;;;16.30;65.00;;;;;;5050803;27;84239;-40
2023/05/22 07:59:14;;;;;;;;;;;16.30;65.00;;;;;;5042633;27;82196;-41
2023/05/22 08:01:43;;;;;;;;;;;16.30;65.10;;;;;;5053387;27;84442;-40
2023/05/22 08:04:09;;;;;;;;;;;16.40;65.10;;;;;;5048829;27;82089;-40
2023/05/22 08:06:34;;;;;;;;;;;16.30;65.00;;;;;;5044468;27;82096;-41
2023/05/22 08:09:01;;;;;;;;;;;16.40;64.90;;;;;;5043097;27;83389;-40
2023/05/22 08:11:27;;;;;;;;;;;16.40;65.10;;;;;;5056032;27;82028;-41
2023/05/22 08:13:52;;;;;;;;;;;16.40;65.20;;;;;;5050618;27;82320;-40
2023/05/22 08:16:18;;;;;;;;;;;16.40;65.20;;;;;;5033240;27;84922;-40
2023/05/22 08:18:43;;;;;;;;;;;16.40;65.30;;;;;;5048568;27;82212;-39
2023/05/22 08:21:09;;;;;;;;;;;16.40;65.20;;;;;;5054192;27;83491;-39
2023/05/22 08:23:35;;;;;;;;;;;16.40;65.40;;;;;;5046300;27;83464;-41
2023/05/22 08:26:01;;;;;;;;;;;16.40;65.50;;;;;;5046498;27;82430;-39
2023/05/22 08:28:26;;;;;;;;;;;16.40;65.40;;;;;;5057127;27;82131;-40
2023/05/22 08:30:53;;;;;;;;;;;16.40;65.40;;;;;;5057961;27;82660;-40
2023/05/22 08:33:19;;;;;;;;;;;16.40;65.50;;;;;;5051163;27;82403;-40
2023/05/22 08:35:44;;;;;;;;;;;16.40;65.40;;;;;;5047031;27;88261;-40
2023/05/22 08:38:10;;;;;;;;;;;16.40;65.50;;;;;;5052630;27;86225;-40
2023/05/22 08:40:36;;;;;;;;;;;16.40;65.50;;;;;;5053287;27;88221;-40
2023/05/22 08:43:03;;;;;;;;;;;16.40;65.50;;;;;;5048818;27;89317;-41
2023/05/22 08:45:32;;;;;;;;;;;16.40;65.50;;;;;;5036837;27;88021;-41
2023/05/22 08:47:58;;;;;;;;;;;16.40;65.50;;;;;;5054055;27;88502;-41
2023/05/22 08:50:24;;;;;;;;;;;16.40;65.40;;;;;;5055469;27;88119;-41
2023/05/22 08:52:50;;;;;;;;;;;16.40;65.40;;;;;;5052590;27;87216;-41
2023/05/22 08:55:18;;;;;;;;;;;16.40;65.20;;;;;;5046356;27;87171;-41
2023/05/22 08:57:48;;;;;;;;;;;16.50;65.30;;;;;;5056696;27;87004;-40
2023/05/22 09:00:14;;;;;;;;;;;16.50;65.20;;;;;;5052885;27;87759;-40
2023/05/22 09:02:40;;;;;;;;;;;16.50;65.40;;;;;;5054496;27;88617;-41
2023/05/22 09:05:07;;;;;;;;;;;16.50;65.30;;;;;;5047405;27;87527;-40
2023/05/22 09:07:32;;;;;;;;;;;16.50;65.10;;;;;;5056273;27;89683;-39
2023/05/22 09:09:58;;;;;;;;;;;16.50;65.30;;;;;;5047989;27;89105;-41
2023/05/22 09:12:25;;;;;;;;;;;16.50;65.10;;;;;;5045888;27;88232;-40
2023/05/22 09:14:50;;;;;;;;;;;16.60;65.20;;;;;;5043042;27;89484;-41
2023/05/22 09:17:17;;;;;;;;;;;16.50;65.30;;;;;;5052351;27;87433;-41
2023/05/22 09:19:45;;;;;;;;;;;16.60;64.90;;;;;;5050208;27;87391;-40
2023/05/22 09:22:11;;;;;;;;;;;16.60;65.00;;;;;;5048583;27;89104;-40
2023/05/22 09:24:38;;;;;;;;;;;16.60;65.00;;;;;;5049619;27;87959;-41
2023/05/22 09:27:07;;;;;;;;;;;16.60;65.00;;;;;;5056168;27;87810;-41
2023/05/22 09:29:47;;;;;;;;;;;16.60;65.00;;;;;;5040561;27;88039;-41
2023/05/22 09:32:13;;;;;;;;;;;16.60;64.90;;;;;;5054620;27;87120;-40
2023/05/22 09:34:39;;;;;;;;;;;16.60;64.80;;;;;;5054077;27;88041;-40
2023/05/22 09:37:04;;;;;;;;;;;16.60;64.80;;;;;;5053730;27;87838;-40
2023/05/22 09:39:46;;;;;;;;;;;16.60;64.90;;;;;;5052658;27;87349;-40
2023/05/22 09:42:13;;;;;;;;;;;16.60;65.10;;;;;;5046988;27;88925;-40
2023/05/22 09:44:41;;;;;;;;;;;16.60;65.00;;;;;;5055367;27;86916;-40
2023/05/22 09:47:08;;;;;;;;;;;16.60;65.00;;;;;;5049768;27;88833;-40
2023/05/22 09:49:40;;;;;;;;;;;16.60;64.90;;;;;;5054144;27;88049;-39
2023/05/22 09:52:07;;;;;;;;;;;16.60;65.10;;;;;;5052902;27;86411;-41
2023/05/22 09:54:33;;;;;;;;;;;16.60;65.00;;;;;;5058559;27;87099;-40
2023/05/22 09:56:59;;;;;;;;;;;16.60;65.00;;;;;;5053145;27;87215;-41
2023/05/22 09:59:26;;;;;;;;;;;16.60;64.90;;;;;;5054609;27;88986;-41
2023/05/22 10:01:52;;;;;;;;;;;16.70;65.00;;;;;;5052580;27;88526;-41
2023/05/22 10:04:20;;;;;;;;;;;16.60;65.10;;;;;;5051447;27;87000;-40
2023/05/22 10:06:49;;;;;;;;;;;16.70;65.20;;;;;;5055328;27;87005;-39
2023/05/22 10:09:16;;;;;;;;;;;16.70;65.10;;;;;;5051111;27;88244;-41
2023/05/22 10:11:42;;;;;;;;;;;16.70;65.20;;;;;;5053616;27;87089;-39
2023/05/22 10:14:08;;;;;;;;;;;16.70;65.10;;;;;;5051317;27;87448;-40
2023/05/22 10:16:36;;;;;;;;;;;16.70;64.90;;;;;;5056514;27;87351;-40
2023/05/22 10:19:02;;;;;;;;;;;16.80;64.90;;;;;;5050197;27;87543;-40
2023/05/22 10:21:28;;;;;;;;;;;16.70;64.70;;;;;;5051713;27;88060;-41
2023/05/22 10:23:54;;;;;;;;;;;16.70;64.70;;;;;;5052726;27;88049;-39
2023/05/22 10:26:21;;;;;;;;;;;16.70;64.30;;;;;;5052403;27;90103;-41
2023/05/22 10:28:52;;;;;;;;;;;16.80;64.30;;;;;;5053400;27;89285;-41
2023/05/22 10:31:24;;;;;;;;;;;16.80;64.20;;;;;;5051933;27;86974;-40
2023/05/22 10:33:53;;;;;;;;;;;16.80;64.00;;;;;;5050062;27;87050;-40
2023/05/22 10:36:30;;;;;;;;;;;16.80;64.10;;;;;;5053982;27;89264;-40
2023/05/22 10:38:56;;;;;;;;;;;16.80;63.90;;;;;;5053139;27;87280;-40
2023/05/22 10:41:22;;;;;;;;;;;16.80;63.90;;;;;;5053911;27;86491;-40
2023/05/22 10:43:48;;;;;;;;;;;16.80;63.70;;;;;;5052151;27;87129;-40
2023/05/22 10:46:13;;;;;;;;;;;16.80;63.60;;;;;;5055157;27;87289;-40
2023/05/22 10:48:39;;;;;;;;;;;16.90;63.60;;;;;;5050153;27;88306;-41
2023/05/22 10:51:05;;;;;;;;;;;16.90;63.50;;;;;;5051428;27;87076;-41
2023/05/22 10:53:31;;;;;;;;;;;16.90;63.60;;;;;;5055234;27;86996;-41
2023/05/22 10:56:01;;;;;;;;;;;16.90;63.70;;;;;;5050920;27;87999;-41
2023/05/22 10:58:31;;;;;;;;;;;16.90;63.70;;;;;;5046772;27;87082;-40
2023/05/22 11:01:07;;;;;;;;;;;16.90;63.60;;;;;;5049788;27;87436;-40
2023/05/22 11:03:58;;;;;;;;;;;16.90;63.50;;;;;;5049021;27;87258;-40
2023/05/22 11:06:33;;;;;;;;;;;17.00;63.80;;;;;;5045530;27;88943;-41
2023/05/22 11:08:58;;;;;;;;;;;16.90;63.80;;;;;;5051454;27;88444;-39
2023/05/22 11:11:25;;;;;;;;;;;17.00;63.60;;;;;;5051475;27;87105;-40
2023/05/22 11:13:51;;;;;;;;;;;17.00;63.80;;;;;;5051357;27;88925;-40
2023/05/22 11:16:16;;;;;;;;;;;17.00;64.00;;;;;;5050358;27;88791;-41
2023/05/22 11:18:42;;;;;;;;;;;17.00;64.10;;;;;;5048018;27;87121;-40
2023/05/22 11:21:12;;;;;;;;;;;17.00;63.90;;;;;;5052542;27;87019;-40
2023/05/22 11:23:38;;;;;;;;;;;17.00;63.80;;;;;;5053168;27;88216;-41
2023/05/22 11:26:16;;;;;;;;;;;17.00;64.20;;;;;;5052608;27;88124;-41
2023/05/22 11:28:42;;;;;;;;;;;17.00;64.20;;;;;;5052237;27;88737;-40
2023/05/22 11:31:08;;;;;;;;;;;17.10;64.30;;;;;;5051898;27;86769;-40
2023/05/22 11:33:33;;;;;;;;;;;17.10;64.50;;;;;;5050544;27;87030;-41
2023/05/22 11:36:00;;;;;;;;;;;17.00;64.50;;;;;;5051865;27;88108;-40
2023/05/22 11:38:26;;;;;;;;;;;17.10;64.50;;;;;;5052145;27;87994;-41
2023/05/22 11:40:52;;;;;;;;;;;17.10;64.30;;;;;;5052542;27;87553;-40
2023/05/22 11:43:27;;;;;;;;;;;17.10;64.50;;;;;;5051922;27;89495;-41
2023/05/22 11:45:52;;;;;;;;;;;17.10;64.40;;;;;;5055744;27;87142;-41
2023/05/22 11:48:19;;;;;;;;;;;17.10;64.40;;;;;;5051283;27;87991;-40
2023/05/22 11:50:44;;;;;;;;;;;17.10;64.50;;;;;;5049570;27;87544;-41
2023/05/22 11:53:10;;;;;;;;;;;17.10;64.60;;;;;;5050897;27;87317;-41
2023/05/22 11:55:35;;;;;;;;;;;17.10;64.40;;;;;;5052006;27;87462;-40
2023/05/22 11:58:01;;;;;;;;;;;17.10;64.60;;;;;;5051842;27;87075;-39
2023/05/22 12:00:28;;;;;;;;;;;17.20;64.60;;;;;;5052905;27;88821;-40
2023/05/22 12:02:53;;;;;;;;;;;17.10;64.40;;;;;;5049544;27;90119;-40
2023/05/22 12:05:19;;;;;;;;;;;17.10;64.50;;;;;;5048988;27;87850;-40
2023/05/22 12:07:45;;;;;;;;;;;17.10;64.70;;;;;;5053301;27;87950;-40
2023/05/22 12:10:12;;;;;;;;;;;17.20;65.00;;;;;;5050327;27;87053;-41
2023/05/22 12:12:38;;;;;;;;;;;17.10;64.90;;;;;;5053661;27;87510;-39
2023/05/22 12:15:04;;;;;;;;;;;17.20;65.10;;;;;;5049419;27;88007;-40
2023/05/22 12:17:29;;;;;;;;;;;17.20;65.10;;;;;;5053291;27;87092;-41
2023/05/22 12:19:56;;;;;;;;;;;17.10;65.10;;;;;;5049903;27;87478;-40
2023/05/22 12:22:25;;;;;;;;;;;17.10;65.10;;;;;;5050050;27;88099;-39
2023/05/22 12:24:51;;;;;;;;;;;17.10;65.20;;;;;;5046313;27;87121;-41
2023/05/22 12:27:16;;;;;;;;;;;17.10;65.20;;;;;;5048348;27;88004;-41
2023/05/22 12:29:42;;;;;;;;;;;17.10;65.30;;;;;;5053952;27;87149;-41
2023/05/22 12:32:09;;;;;;;;;;;17.10;65.40;;;;;;5050649;27;87482;-40
2023/05/22 12:34:40;;;;;;;;;;;17.10;65.40;;;;;;5048611;27;89397;-41
2023/05/22 12:37:16;;;;;;;;;;;17.10;65.40;;;;;;5046349;27;87080;-40
2023/05/22 12:39:51;;;;;;;;;;;17.10;65.40;;;;;;5047995;27;88898;-40
2023/05/22 12:42:17;;;;;;;;;;;17.10;65.40;;;;;;5051606;27;88357;-41
2023/05/22 12:44:44;;;;;;;;;;;17.00;65.30;;;;;;5052284;27;86335;-40
2023/05/22 12:47:09;;;;;;;;;;;17.10;65.40;;;;;;5052150;27;87006;-40
2023/05/22 12:49:35;;;;;;;;;;;17.10;65.40;;;;;;5051842;27;87873;-41
2023/05/22 12:52:00;;;;;;;;;;;17.10;65.50;;;;;;5050805;27;88014;-41
2023/05/22 12:54:26;;;;;;;;;;;17.10;65.40;;;;;;5052006;27;88159;-40
2023/05/22 12:56:51;;;;;;;;;;;17.10;65.50;;;;;;5050660;27;87112;-40
2023/05/22 12:59:17;;;;;;;;;;;17.10;65.50;;;;;;5053194;27;87492;-40
2023/05/22 13:01:42;;;;;;;;;;;17.10;65.50;;;;;;5049990;27;87830;-42
2023/05/22 13:04:08;;;;;;;;;;;17.10;65.50;;;;;;5053711;27;87352;-40
2023/05/22 13:06:33;;;;;;;;;;;17.20;65.60;;;;;;5048794;27;87384;-41
2023/05/22 13:08:59;;;;;;;;;;;17.10;65.50;;;;;;5049986;27;87464;-41
2023/05/22 13:11:25;;;;;;;;;;;17.20;65.60;;;;;;5056241;27;87466;-40
2023/05/22 13:13:50;;;;;;;;;;;17.20;66.10;;;;;;5050563;27;89414;-41
2023/05/22 13:16:16;;;;;;;;;;;17.20;65.60;;;;;;5055271;27;88101;-40
2023/05/22 13:18:41;;;;;;;;;;;17.20;65.50;;;;;;5054367;27;87388;-41
2023/05/22 13:21:07;;;;;;;;;;;17.20;65.50;;;;;;5052011;27;87258;-40
2023/05/22 13:23:32;;;;;;;;;;;17.20;65.50;;;;;;5055451;27;87065;-41
2023/05/22 13:26:00;;;;;;;;;;;17.20;65.50;;;;;;5054800;27;87535;-40
2023/05/22 13:28:26;;;;;;;;;;;17.30;65.60;;;;;;5054630;27;89415;-40
2023/05/22 13:30:52;;;;;;;;;;;17.30;65.50;;;;;;5054607;27;87174;-40
2023/05/22 13:33:17;;;;;;;;;;;17.30;65.50;;;;;;5057415;27;89063;-40
2023/05/22 13:35:43;;;;;;;;;;;17.30;65.50;;;;;;5051860;27;87486;-40
2023/05/22 13:38:09;;;;;;;;;;;17.40;65.60;;;;;;5055521;27;86993;-40
2023/05/22 13:40:34;;;;;;;;;;;17.30;65.50;;;;;;5052302;27;90124;-39
2023/05/22 13:43:00;;;;;;;;;;;17.40;65.50;;;;;;5055476;27;87112;-40
2023/05/22 13:45:26;;;;;;;;;;;17.40;65.40;;;;;;5053048;27;87278;-41
2023/05/22 13:47:52;;;;;;;;;;;17.50;65.40;;;;;;5055971;27;87161;-41
2023/05/22 13:50:17;;;;;;;;;;;17.50;65.40;;;;;;5052714;27;87147;-40
2023/05/22 13:52:43;;;;;;;;;;;17.50;65.40;;;;;;5054075;27;88118;-41
2023/05/22 13:55:09;;;;;;;;;;;17.50;65.40;;;;;;5056379;27;87042;-41
2023/05/22 13:57:35;;;;;;;;;;;17.50;65.40;;;;;;5052856;27;89228;-39
2023/05/22 14:00:01;;;;;;;;;;;17.60;65.40;;;;;;5055180;27;87968;-41
2023/05/22 14:02:27;;;;;;;;;;;17.60;65.30;;;;;;5053074;27;87234;-41
2023/05/22 14:04:52;;;;;;;;;;;17.60;65.20;;;;;;5054803;27;88000;-40
2023/05/22 14:07:18;;;;;;;;;;;17.70;65.10;;;;;;5050921;27;88143;-41
2023/05/22 14:09:43;;;;;;;;;;;17.70;65.00;;;;;;5053495;27;86992;-41
2023/05/22 14:12:09;;;;;;;;;;;17.70;65.10;;;;;;5054594;27;87351;-40
2023/05/22 14:14:35;;;;;;;;;;;17.70;65.10;;;;;;5056266;27;89481;-40